Wetterdaten: Woche 08.02.16 - 14.02.16 (KW6)
Datum Zeit Auen-Temp. Temp gefhlt Luftfeuchte Luftdruck Regen Wind Richtung Sonnenschein Taupunkt Windben
08.02.2016 00:00 2,2 C 1,2 C 85 % 1016,1 hPa 0,0 mm 9,6 km/h (2 Bft) SW 0,00 h -0,1 C 12,1 km/h (2 Bft)
08.02.2016 01:00 2,2 C 1,7 C 79 % 1015,5 hPa 0,0 mm 4,8 km/h (1 Bft) SO 0,00 h -1,1 C 4,3 km/h (1 Bft)
08.02.2016 02:00 2,0 C 1,7 C 80 % 1014,9 hPa 0,0 mm 1,6 km/h (1 Bft) SO 0,00 h -1,2 C 2,0 km/h (1 Bft)
08.02.2016 03:00 1,9 C 1,6 C 82 % 1014,6 hPa 0,0 mm 0,6 km/h (0 Bft) SO 0,00 h -0,8 C 1,5 km/h (1 Bft)
08.02.2016 04:00 1,5 C 1,1 C 82 % 1014,0 hPa 0,0 mm 0,1 km/h (0 Bft) N 0,00 h -1,2 C 0,3 km/h (0 Bft)
08.02.2016 05:00 0,2 C -0,3 C 83 % 1013,7 hPa 0,0 mm 0,0 km/h (0 Bft) N 0,00 h -2,2 C 0,0 km/h (0 Bft)
08.02.2016 06:00 -0,7 C -1,3 C 86 % 1013,3 hPa 0,0 mm 0,1 km/h (0 Bft) N 0,00 h -2,8 C 0,0 km/h (0 Bft)
08.02.2016 07:00 -1,3 C -1,7 C 87 % 1013,1 hPa 0,0 mm 0,1 km/h (0 Bft) NO 0,00 h -3,2 C 1,0 km/h (0 Bft)
08.02.2016 08:00 0,6 C 0,2 C 88 % 1013,0 hPa 0,0 mm 1,6 km/h (1 Bft) SO 0,00 h -1,3 C 2,2 km/h (1 Bft)
08.02.2016 09:00 3,5 C 4,3 C 80 % 1012,4 hPa 0,0 mm 2,2 km/h (1 Bft) O-NO 0,00 h 0,3 C 3,5 km/h (1 Bft)
08.02.2016 10:00 6,1 C 7,6 C 72 % 1012,0 hPa 0,0 mm 2,0 km/h (1 Bft) NO 0,00 h 1,4 C 3,9 km/h (1 Bft)
08.02.2016 11:00 7,5 C 9,3 C 69 % 1011,1 hPa 0,0 mm 1,3 km/h (1 Bft) O-NO 0,00 h 2,1 C 2,4 km/h (1 Bft)
08.02.2016 12:00 9,0 C 12,0 C 64 % 1010,1 hPa 0,0 mm 0,9 km/h (0 Bft) NW 0,75 h 2,5 C 1,5 km/h (1 Bft)
08.02.2016 13:00 11,0 C 14,6 C 58 % 1009,5 hPa 0,0 mm 7,3 km/h (2 Bft) NW 1,00 h 3,0 C 10,0 km/h (2 Bft)
08.02.2016 14:00 12,4 C 14,8 C 52 % 1009,6 hPa 0,0 mm 4,2 km/h (1 Bft) NW 0,42 h 2,7 C 4,7 km/h (1 Bft)
08.02.2016 15:00 11,5 C 12,8 C 53 % 1009,5 hPa 0,0 mm 1,2 km/h (1 Bft) SW 0,00 h 2,2 C 1,8 km/h (1 Bft)
08.02.2016 16:00 10,0 C 10,6 C 55 % 1009,0 hPa 0,0 mm 1,9 km/h (1 Bft) O-SO 0,00 h 1,5 C 2,5 km/h (1 Bft)
08.02.2016 17:00 8,5 C 8,5 C 58 % 1008,7 hPa 0,0 mm 4,1 km/h (1 Bft) SW 0,00 h 0,6 C 8,4 km/h (2 Bft)
08.02.2016 18:00 9,7 C 9,6 C 49 % 1009,3 hPa 0,0 mm 10,7 km/h (2 Bft) W 0,00 h -0,6 C 9,9 km/h (2 Bft)
08.02.2016 19:00 9,4 C 9,1 C 50 % 1010,4 hPa 0,0 mm 10,1 km/h (2 Bft) W 0,00 h -0,6 C 12,7 km/h (3 Bft)
08.02.2016 20:00 8,4 C 8,1 C 54 % 1011,5 hPa 0,0 mm 8,9 km/h (2 Bft) W 0,00 h -0,3 C 11,8 km/h (2 Bft)
08.02.2016 21:00 6,9 C 6,4 C 65 % 1012,1 hPa 1,4 mm 7,4 km/h (2 Bft) W 0,00 h 0,7 C 9,7 km/h (2 Bft)
08.02.2016 22:00 5,2 C 4,5 C 79 % 1012,9 hPa 0,7 mm 9,5 km/h (2 Bft) SW 0,00 h 1,8 C 10,0 km/h (2 Bft)
08.02.2016 23:00 5,3 C 4,9 C 79 % 1012,4 hPa 0,0 mm 5,0 km/h (1 Bft) SW 0,00 h 1,9 C 8,3 km/h (2 Bft)
09.02.2016 00:00 5,1 C 4,4 C 82 % 1013,1 hPa 1,4 mm 10,2 km/h (2 Bft) W-SW 0,00 h 2,3 C 15,2 km/h (3 Bft)
09.02.2016 01:00 4,5 C 4,0 C 81 % 1013,2 hPa 0,0 mm 6,3 km/h (2 Bft) W-SW 0,00 h 1,5 C 7,8 km/h (2 Bft)
09.02.2016 02:00 4,6 C 4,0 C 76 % 1009,4 hPa 0,0 mm 6,4 km/h (2 Bft) W-SW 0,00 h 0,8 C 7,5 km/h (2 Bft)
09.02.2016 03:00 4,9 C 3,9 C 78 % 1008,9 hPa 0,7 mm 15,6 km/h (3 Bft) NW 0,00 h 1,4 C 22,6 km/h (4 Bft)
09.02.2016 04:00 4,3 C 3,4 C 82 % 1008,5 hPa 0,0 mm 11,0 km/h (2 Bft) W-SW 0,00 h 1,4 C 15,0 km/h (3 Bft)
09.02.2016 05:00 3,0 C 2,6 C 83 % 1007,9 hPa 0,0 mm 2,3 km/h (1 Bft) N-NO 0,00 h 0,4 C 2,0 km/h (1 Bft)
09.02.2016 06:00 2,1 C 1,8 C 85 % 1007,3 hPa 0,0 mm 0,4 km/h (0 Bft) W-SW 0,00 h -0,1 C 0,3 km/h (0 Bft)
09.02.2016 07:00 1,2 C 0,8 C 86 % 1006,6 hPa 0,0 mm 0,0 km/h (0 Bft) N 0,00 h -0,8 C 0,0 km/h (0 Bft)
09.02.2016 08:00 1,3 C 1,2 C 86 % 1005,8 hPa 0,0 mm 0,3 km/h (0 Bft) N 0,00 h -0,7 C 0,3 km/h (0 Bft)
09.02.2016 09:00 2,7 C 3,6 C 82 % 1004,7 hPa 0,0 mm 0,0 km/h (0 Bft) O-SO 0,00 h -0,1 C 0,3 km/h (0 Bft)
09.02.2016 10:00 5,2 C 7,2 C 79 % 1003,9 hPa 0,0 mm 2,7 km/h (1 Bft) N-NO 0,00 h 1,9 C 3,3 km/h (1 Bft)
09.02.2016 11:00 7,7 C 10,5 C 69 % 1003,2 hPa 0,0 mm 4,8 km/h (1 Bft) N-NO 0,25 h 2,4 C 7,1 km/h (2 Bft)
09.02.2016 12:00 9,0 C 12,9 C 63 % 1001,0 hPa 0,0 mm 4,4 km/h (1 Bft) O-NO 0,67 h 2,3 C 5,9 km/h (2 Bft)
09.02.2016 13:00 10,2 C 12,1 C 62 % 998,5 hPa 0,0 mm 5,7 km/h (1 Bft) W 0,00 h 3,2 C 7,5 km/h (2 Bft)
09.02.2016 14:00 11,7 C 12,7 C 54 % 996,6 hPa 0,0 mm 4,9 km/h (1 Bft) SW 0,00 h 2,6 C 7,3 km/h (2 Bft)
09.02.2016 15:00 12,6 C 13,1 C 42 % 995,5 hPa 0,0 mm 8,7 km/h (2 Bft) W-SW 0,00 h -0,1 C 9,8 km/h (2 Bft)
09.02.2016 16:00 11,6 C 12,1 C 42 % 994,6 hPa 0,0 mm 4,3 km/h (1 Bft) O-SO 0,00 h -0,9 C 4,5 km/h (1 Bft)
09.02.2016 17:00 11,2 C 11,3 C 40 % 993,8 hPa 0,0 mm 6,1 km/h (2 Bft) SW 0,00 h -2,0 C 7,4 km/h (2 Bft)
09.02.2016 18:00 11,1 C 11,1 C 39 % 994,2 hPa 0,0 mm 10,2 km/h (2 Bft) W 0,00 h -2,4 C 13,0 km/h (3 Bft)
09.02.2016 19:00 8,8 C 8,8 C 49 % 993,4 hPa 0,0 mm 4,4 km/h (1 Bft) O-SO 0,00 h -1,2 C 4,9 km/h (1 Bft)
09.02.2016 20:00 8,9 C 8,9 C 51 % 993,3 hPa 0,0 mm 8,0 km/h (2 Bft) SW 0,00 h -0,7 C 11,6 km/h (2 Bft)
09.02.2016 21:00 4,3 C 3,5 C 73 % 995,3 hPa 2,1 mm 22,5 km/h (4 Bft) W 0,00 h -0,3 C 36,9 km/h (5 Bft)
09.02.2016 22:00 1,7 C 0,4 C 86 % 995,7 hPa 0,0 mm 19,4 km/h (3 Bft) W 0,00 h -0,4 C 22,9 km/h (4 Bft)
09.02.2016 23:00 1,4 C 0,2 C 86 % 995,1 hPa 0,7 mm 17,3 km/h (3 Bft) W-SW 0,00 h -0,7 C 21,3 km/h (4 Bft)
10.02.2016 00:00 1,7 C 0,5 C 78 % 994,7 hPa 0,0 mm 20,5 km/h (4 Bft) W 0,00 h -1,8 C 32,2 km/h (5 Bft)
10.02.2016 01:00 0,6 C -0,6 C 74 % 995,2 hPa 0,0 mm 23,7 km/h (4 Bft) W-NW 0,00 h -3,4 C 30,2 km/h (5 Bft)
10.02.2016 02:00 0,8 C -0,4 C 67 % 995,9 hPa 0,0 mm 26,2 km/h (4 Bft) W-SW 0,00 h -4,7 C 29,5 km/h (5 Bft)
10.02.2016 03:00 0,7 C -0,2 C 66 % 996,3 hPa 0,0 mm 15,2 km/h (3 Bft) W-SW 0,00 h -4,9 C 16,4 km/h (3 Bft)
10.02.2016 04:00 0,6 C -0,4 C 67 % 996,7 hPa 0,0 mm 17,0 km/h (3 Bft) W 0,00 h -4,9 C 22,1 km/h (4 Bft)
10.02.2016 05:00 -0,2 C -1,0 C 72 % 996,8 hPa 0,0 mm 11,2 km/h (2 Bft) W-SW 0,00 h -4,7 C 13,0 km/h (3 Bft)
10.02.2016 06:00 -1,2 C -2,0 C 78 % 996,9 hPa 0,0 mm 9,7 km/h (2 Bft) W 0,00 h -4,6 C 11,5 km/h (2 Bft)
10.02.2016 07:00 -1,2 C -2,2 C 79 % 997,3 hPa 0,0 mm 14,3 km/h (3 Bft) S 0,00 h -4,4 C 27,1 km/h (4 Bft)
10.02.2016 08:00 -0,9 C -1,6 C 79 % 997,9 hPa 0,0 mm 15,0 km/h (3 Bft) W 0,00 h -4,1 C 20,3 km/h (4 Bft)
10.02.2016 09:00 -0,8 C -1,1 C 80 % 998,5 hPa 0,0 mm 14,3 km/h (3 Bft) W-SW 0,00 h -3,9 C 20,2 km/h (4 Bft)
10.02.2016 10:00 -0,5 C -0,2 C 81 % 999,0 hPa 0,0 mm 14,2 km/h (3 Bft) W 0,00 h -3,3 C 19,5 km/h (3 Bft)
10.02.2016 11:00 -0,1 C 0,4 C 80 % 999,8 hPa 0,0 mm 18,2 km/h (3 Bft) SW 0,00 h -3,2 C 23,4 km/h (4 Bft)
10.02.2016 12:00 0,5 C 1,3 C 74 % 1000,2 hPa 0,7 mm 19,4 km/h (3 Bft) W 0,00 h -3,5 C 28,2 km/h (4 Bft)
10.02.2016 13:00 1,1 C 2,3 C 65 % 1000,4 hPa 0,0 mm 16,1 km/h (3 Bft) W-SW 0,00 h -4,7 C 18,2 km/h (3 Bft)
10.02.2016 14:00 1,7 C 2,7 C 60 % 1000,4 hPa 0,0 mm 16,5 km/h (3 Bft) W-SW 0,00 h -5,2 C 20,6 km/h (4 Bft)
10.02.2016 15:00 0,1 C -0,3 C 69 % 1000,6 hPa 0,0 mm 18,1 km/h (3 Bft) W 0,00 h -5,0 C 25,0 km/h (4 Bft)
10.02.2016 16:00 -0,1 C -0,9 C 70 % 1000,7 hPa 0,0 mm 17,3 km/h (3 Bft) W-SW 0,00 h -4,8 C 21,9 km/h (4 Bft)
10.02.2016 17:00 0,0 C -1,0 C 67 % 1000,9 hPa 0,0 mm 19,2 km/h (3 Bft) W 0,00 h -5,4 C 23,7 km/h (4 Bft)
10.02.2016 18:00 0,3 C -0,7 C 63 % 1001,5 hPa 0,0 mm 17,6 km/h (3 Bft) W-SW 0,00 h -5,9 C 23,2 km/h (4 Bft)
10.02.2016 19:00 0,1 C -1,0 C 65 % 1002,1 hPa 0,0 mm 18,8 km/h (3 Bft) W-SW 0,00 h -5,8 C 23,4 km/h (4 Bft)
10.02.2016 20:00 0,0 C -1,0 C 63 % 1002,7 hPa 0,0 mm 17,2 km/h (3 Bft) W-SW 0,00 h -6,1 C 25,9 km/h (4 Bft)
10.02.2016 21:00 0,2 C -0,8 C 61 % 1003,3 hPa 0,0 mm 17,3 km/h (3 Bft) W-SW 0,00 h -6,4 C 19,1 km/h (3 Bft)
10.02.2016 22:00 0,3 C -0,6 C 58 % 1003,6 hPa 0,0 mm 13,1 km/h (3 Bft) W 0,00 h -6,9 C 17,3 km/h (3 Bft)
10.02.2016 23:00 -0,0 C -1,1 C 58 % 1003,9 hPa 0,0 mm 12,1 km/h (2 Bft) W-SW 0,00 h -7,3 C 18,7 km/h (3 Bft)
11.02.2016 00:00 -0,2 C -1,4 C 56 % 1003,9 hPa 0,0 mm 13,4 km/h (3 Bft) W-SW 0,00 h -7,8 C 20,4 km/h (4 Bft)
11.02.2016 01:00 -0,3 C -1,4 C 57 % 1004,3 hPa 0,0 mm 14,0 km/h (3 Bft) W 0,00 h -7,9 C 21,3 km/h (4 Bft)
11.02.2016 02:00 -0,4 C -1,5 C 57 % 1004,7 hPa 0,0 mm 13,0 km/h (3 Bft) W 0,00 h -7,8 C 19,6 km/h (3 Bft)
11.02.2016 03:00 -0,5 C -1,7 C 59 % 1005,2 hPa 0,0 mm 12,2 km/h (2 Bft) W 0,00 h -7,6 C 15,6 km/h (3 Bft)
11.02.2016 04:00 -0,1 C -1,1 C 58 % 1005,6 hPa 0,0 mm 14,2 km/h (3 Bft) W 0,00 h -7,2 C 16,8 km/h (3 Bft)
11.02.2016 05:00 0,1 C -0,9 C 57 % 1006,0 hPa 0,0 mm 14,6 km/h (3 Bft) W-SW 0,00 h -7,5 C 17,7 km/h (3 Bft)
11.02.2016 06:00 -0,1 C -0,9 C 57 % 1006,2 hPa 0,0 mm 9,3 km/h (2 Bft) W-SW 0,00 h -7,6 C 12,2 km/h (2 Bft)
11.02.2016 07:00 -0,2 C -0,8 C 58 % 1006,5 hPa 0,0 mm 7,3 km/h (2 Bft) W-SW 0,00 h -7,4 C 7,7 km/h (2 Bft)
11.02.2016 08:00 0,0 C -0,5 C 58 % 1006,8 hPa 0,0 mm 7,7 km/h (2 Bft) SW 0,00 h -7,2 C 10,6 km/h (2 Bft)
11.02.2016 09:00 0,8 C 0,8 C 56 % 1007,1 hPa 0,0 mm 9,4 km/h (2 Bft) W-SW 0,00 h -7,0 C 11,4 km/h (2 Bft)
11.02.2016 10:00 1,3 C 1,2 C 51 % 1007,7 hPa 0,0 mm 13,4 km/h (3 Bft) W-SW 0,00 h -7,7 C 15,9 km/h (3 Bft)
11.02.2016 11:00 1,8 C 4,8 C 49 % 1008,2 hPa 0,0 mm 13,0 km/h (3 Bft) W-SW 0,75 h -7,7 C 15,3 km/h (3 Bft)
11.02.2016 12:00 2,0 C 5,5 C 49 % 1008,6 hPa 0,0 mm 9,6 km/h (2 Bft) W-NW 0,75 h -7,6 C 13,0 km/h (3 Bft)
11.02.2016 13:00 3,2 C 7,7 C 48 % 1007,7 hPa 0,0 mm 10,9 km/h (2 Bft) NW 1,00 h -6,9 C 12,8 km/h (3 Bft)
11.02.2016 14:00 5,4 C 8,6 C 45 % 1007,0 hPa 0,0 mm 9,5 km/h (2 Bft) W-NW 0,63 h -5,7 C 11,4 km/h (2 Bft)
11.02.2016 15:00 4,9 C 7,7 C 44 % 1006,6 hPa 0,0 mm 7,5 km/h (2 Bft) NW 0,67 h -6,3 C 9,7 km/h (2 Bft)
11.02.2016 16:00 1,9 C 1,7 C 47 % 1006,4 hPa 0,0 mm 5,5 km/h (1 Bft) NW 0,00 h -8,3 C 6,5 km/h (2 Bft)
11.02.2016 17:00 0,4 C -0,0 C 51 % 1006,3 hPa 0,0 mm 2,0 km/h (1 Bft) S 0,00 h -8,4 C 2,2 km/h (1 Bft)
11.02.2016 18:00 -1,3 C -1,7 C 59 % 1006,4 hPa 0,0 mm 2,8 km/h (1 Bft) S-SO 0,00 h -8,3 C 3,3 km/h (1 Bft)
11.02.2016 19:00 -2,6 C -3,3 C 64 % 1006,5 hPa 0,0 mm 0,2 km/h (0 Bft) S 0,00 h -8,4 C 0,1 km/h (0 Bft)
11.02.2016 20:00 -4,2 C -5,0 C 67 % 1006,1 hPa 0,0 mm 0,0 km/h (0 Bft) N 0,00 h -9,4 C 0,0 km/h (0 Bft)
11.02.2016 21:00 -5,0 C -5,6 C 71 % 1006,7 hPa 0,0 mm 0,0 km/h (0 Bft) N 0,00 h -9,5 C 0,0 km/h (0 Bft)
11.02.2016 22:00 -4,6 C -5,2 C 73 % 1006,9 hPa 0,0 mm 0,0 km/h (0 Bft) N 0,00 h -8,6 C 0,0 km/h (0 Bft)
11.02.2016 23:00 -3,2 C -3,7 C 73 % 1007,0 hPa 0,0 mm 0,2 km/h (0 Bft) N 0,00 h -7,4 C 0,3 km/h (0 Bft)
12.02.2016 00:00 -4,2 C -4,8 C 72 % 1006,7 hPa 0,0 mm 0,1 km/h (0 Bft) N 0,00 h -8,4 C 0,4 km/h (0 Bft)
12.02.2016 01:00 -4,6 C -5,1 C 74 % 1006,5 hPa 0,0 mm 0,0 km/h (0 Bft) N 0,00 h -8,5 C 0,0 km/h (0 Bft)
12.02.2016 02:00 -4,8 C -5,2 C 76 % 1006,6 hPa 0,0 mm 0,0 km/h (0 Bft) N 0,00 h -8,4 C 0,0 km/h (0 Bft)
12.02.2016 03:00 -4,7 C -5,3 C 77 % 1006,3 hPa 0,0 mm 0,2 km/h (0 Bft) N 0,00 h -8,1 C 0,4 km/h (0 Bft)
12.02.2016 04:00 -4,3 C -4,6 C 74 % 1006,2 hPa 0,0 mm 0,1 km/h (0 Bft) N 0,00 h -8,2 C 0,0 km/h (0 Bft)
12.02.2016 05:00 -4,1 C -4,5 C 76 % 1006,1 hPa 0,0 mm 0,6 km/h (0 Bft) W 0,00 h -7,6 C 1,0 km/h (0 Bft)
12.02.2016 06:00 -3,4 C -3,7 C 75 % 1005,9 hPa 0,0 mm 0,4 km/h (0 Bft) SW 0,00 h -7,1 C 0,5 km/h (0 Bft)
12.02.2016 07:00 -2,9 C -3,2 C 75 % 1005,7 hPa 0,0 mm 0,2 km/h (0 Bft) N 0,00 h -6,7 C 0,4 km/h (0 Bft)
12.02.2016 08:00 -2,1 C -1,6 C 72 % 1005,2 hPa 0,0 mm 0,0 km/h (0 Bft) N 0,00 h -6,4 C 0,2 km/h (0 Bft)
12.02.2016 09:00 -0,9 C 0,3 C 69 % 1004,9 hPa 0,0 mm 0,4 km/h (0 Bft) N-NW 0,00 h -5,8 C 0,4 km/h (0 Bft)
12.02.2016 10:00 0,0 C 2,3 C 64 % 1004,1 hPa 0,0 mm 2,6 km/h (1 Bft) O-NO 0,40 h -6,0 C 3,8 km/h (1 Bft)
12.02.2016 11:00 1,0 C 7,1 C 58 % 1003,8 hPa 0,0 mm 5,9 km/h (2 Bft) O-NO 0,98 h -6,2 C 8,1 km/h (2 Bft)
12.02.2016 12:00 1,9 C 6,1 C 56 % 1003,5 hPa 0,0 mm 7,6 km/h (2 Bft) O-NO 0,73 h -5,9 C 11,5 km/h (2 Bft)
12.02.2016 13:00 3,1 C 8,5 C 53 % 1001,8 hPa 0,0 mm 8,2 km/h (2 Bft) O-NO 1,00 h -5,5 C 10,5 km/h (2 Bft)
12.02.2016 14:00 4,7 C 8,4 C 50 % 1000,5 hPa 0,0 mm 6,2 km/h (2 Bft) O-NO 0,97 h -4,8 C 8,7 km/h (2 Bft)
12.02.2016 15:00 4,2 C 6,2 C 50 % 999,0 hPa 0,0 mm 3,3 km/h (1 Bft) O-NO 0,28 h -5,3 C 3,7 km/h (1 Bft)
12.02.2016 16:00 2,8 C 3,0 C 54 % 997,5 hPa 0,0 mm 2,2 km/h (1 Bft) O-NO 0,00 h -5,6 C 3,4 km/h (1 Bft)
12.02.2016 17:00 1,8 C 1,7 C 57 % 996,3 hPa 0,0 mm 3,3 km/h (1 Bft) O-NO 0,00 h -5,7 C 3,7 km/h (1 Bft)
12.02.2016 18:00 1,1 C 0,9 C 59 % 996,0 hPa 0,0 mm 0,9 km/h (0 Bft) N-NO 0,00 h -6,0 C 1,2 km/h (1 Bft)
12.02.2016 19:00 0,6 C 0,4 C 63 % 996,4 hPa 0,0 mm 1,3 km/h (1 Bft) S 0,00 h -5,6 C 2,0 km/h (1 Bft)
12.02.2016 20:00 0,7 C 0,4 C 67 % 996,6 hPa 0,0 mm 3,9 km/h (1 Bft) SW 0,00 h -4,7 C 4,6 km/h (1 Bft)
12.02.2016 21:00 0,6 C 0,4 C 72 % 996,6 hPa 0,0 mm 2,3 km/h (1 Bft) O-SO 0,00 h -3,8 C 3,0 km/h (1 Bft)
12.02.2016 22:00 0,3 C 0,1 C 72 % 996,4 hPa 0,0 mm 0,6 km/h (0 Bft) SW 0,00 h -4,0 C 0,7 km/h (0 Bft)
12.02.2016 23:00 0,1 C -0,2 C 73 % 996,1 hPa 0,0 mm 0,0 km/h (0 Bft) N 0,00 h -4,2 C 0,0 km/h (0 Bft)
13.02.2016 00:00 -0,1 C -0,3 C 75 % 996,0 hPa 0,0 mm 0,6 km/h (0 Bft) NW 0,00 h -4,0 C 1,1 km/h (1 Bft)
13.02.2016 01:00 -0,3 C -0,6 C 76 % 995,7 hPa 0,0 mm 0,3 km/h (0 Bft) W-NW 0,00 h -4,0 C 0,4 km/h (0 Bft)
13.02.2016 02:00 -0,2 C -0,4 C 76 % 995,5 hPa 0,0 mm 0,8 km/h (0 Bft) SO 0,00 h -4,0 C 0,8 km/h (0 Bft)
13.02.2016 03:00 0,1 C -0,1 C 77 % 995,6 hPa 0,0 mm 0,0 km/h (0 Bft) N 0,00 h -3,5 C 0,1 km/h (0 Bft)
13.02.2016 04:00 0,6 C 0,5 C 76 % 995,8 hPa 0,0 mm 1,5 km/h (1 Bft) SW 0,00 h -3,2 C 2,2 km/h (1 Bft)
13.02.2016 05:00 1,1 C 0,5 C 80 % 996,1 hPa 0,0 mm 7,0 km/h (2 Bft) W-SW 0,00 h -2,0 C 9,5 km/h (2 Bft)
13.02.2016 06:00 0,8 C 0,5 C 84 % 996,6 hPa 0,0 mm 4,4 km/h (1 Bft) SW 0,00 h -1,6 C 5,7 km/h (1 Bft)
13.02.2016 07:00 0,9 C 0,7 C 86 % 996,7 hPa 0,7 mm 3,4 km/h (1 Bft) W-SW 0,00 h -1,1 C 4,1 km/h (1 Bft)
13.02.2016 08:00 1,5 C 1,4 C 85 % 996,9 hPa 0,0 mm 2,2 km/h (1 Bft) SO 0,00 h -0,7 C 1,6 km/h (1 Bft)
13.02.2016 09:00 2,1 C 2,6 C 83 % 997,0 hPa 0,0 mm 2,6 km/h (1 Bft) SW 0,00 h -0,6 C 3,1 km/h (1 Bft)
13.02.2016 10:00 3,4 C 4,7 C 80 % 997,0 hPa 0,0 mm 0,5 km/h (0 Bft) W 0,00 h 0,2 C 0,6 km/h (0 Bft)
13.02.2016 11:00 4,2 C 6,1 C 78 % 996,9 hPa 0,0 mm 2,6 km/h (1 Bft) W-NW 0,25 h 0,7 C 4,1 km/h (1 Bft)
13.02.2016 12:00 5,1 C 8,3 C 75 % 996,3 hPa 0,0 mm 2,8 km/h (1 Bft) O-NO 0,67 h 0,9 C 3,1 km/h (1 Bft)
13.02.2016 13:00 5,8 C 8,5 C 71 % 995,5 hPa 0,0 mm 4,3 km/h (1 Bft) NO 0,23 h 1,0 C 5,0 km/h (1 Bft)
13.02.2016 14:00 5,9 C 7,2 C 68 % 994,9 hPa 0,0 mm 3,1 km/h (1 Bft) NW 0,00 h 0,5 C 3,8 km/h (1 Bft)
13.02.2016 15:00 5,4 C 5,6 C 69 % 994,0 hPa 0,0 mm 1,3 km/h (1 Bft) NO 0,00 h 0,2 C 2,1 km/h (1 Bft)
13.02.2016 16:00 4,9 C 5,1 C 72 % 993,2 hPa 0,0 mm 4,0 km/h (1 Bft) O-NO 0,00 h 0,2 C 4,9 km/h (1 Bft)
13.02.2016 17:00 3,0 C 3,0 C 76 % 992,5 hPa 0,0 mm 0,8 km/h (0 Bft) S 0,00 h -0,7 C 1,1 km/h (1 Bft)
13.02.2016 18:00 2,4 C 2,2 C 79 % 992,4 hPa 0,0 mm 3,3 km/h (1 Bft) W 0,00 h -0,8 C 4,3 km/h (1 Bft)
13.02.2016 19:00 2,6 C 2,4 C 81 % 993,2 hPa 0,0 mm 5,8 km/h (2 Bft) SW 0,00 h -0,3 C 7,4 km/h (2 Bft)
13.02.2016 20:00 2,9 C 2,8 C 81 % 993,2 hPa 0,0 mm 3,1 km/h (1 Bft) O-SO 0,00 h 0,1 C 3,8 km/h (1 Bft)
13.02.2016 21:00 3,3 C 3,2 C 78 % 992,9 hPa 0,0 mm 2,7 km/h (1 Bft) SW 0,00 h -0,1 C 3,8 km/h (1 Bft)
13.02.2016 22:00 4,0 C 4,0 C 73 % 992,8 hPa 0,0 mm 3,0 km/h (1 Bft) S-SO 0,00 h -0,4 C 5,0 km/h (1 Bft)
13.02.2016 23:00 5,1 C 5,0 C 63 % 992,1 hPa 0,0 mm 5,3 km/h (1 Bft) O-SO 0,00 h -1,4 C 7,8 km/h (2 Bft)
14.02.2016 00:00 5,2 C 5,1 C 59 % 992,0 hPa 0,0 mm 7,2 km/h (2 Bft) W 0,00 h -2,0 C 13,3 km/h (3 Bft)
14.02.2016 01:00 4,5 C 4,1 C 66 % 992,5 hPa 0,0 mm 9,4 km/h (2 Bft) W 0,00 h -1,2 C 9,7 km/h (2 Bft)
14.02.2016 02:00 4,1 C 3,8 C 65 % 992,2 hPa 0,0 mm 3,9 km/h (1 Bft) S 0,00 h -1,9 C 4,6 km/h (1 Bft)
14.02.2016 03:00 4,6 C 4,1 C 59 % 992,4 hPa 0,0 mm 9,4 km/h (2 Bft) W-SW 0,00 h -2,8 C 13,0 km/h (3 Bft)
14.02.2016 04:00 2,9 C 2,5 C 63 % 992,0 hPa 0,0 mm 3,3 km/h (1 Bft) S 0,00 h -3,3 C 3,6 km/h (1 Bft)
14.02.2016 05:00 0,9 C 0,5 C 70 % 992,0 hPa 0,0 mm 2,2 km/h (1 Bft) S-SO 0,00 h -4,0 C 3,2 km/h (1 Bft)
14.02.2016 06:00 -0,5 C -1,0 C 73 % 992,0 hPa 0,0 mm 0,7 km/h (0 Bft) SO 0,00 h -4,7 C 0,8 km/h (0 Bft)
14.02.2016 07:00 -1,3 C -1,9 C 76 % 991,7 hPa 0,7 mm 0,2 km/h (0 Bft) N 0,00 h -5,0 C 0,4 km/h (0 Bft)
14.02.2016 08:00 -1,0 C -1,4 C 77 % 991,8 hPa 0,0 mm 0,1 km/h (0 Bft) N 0,00 h -4,5 C 0,0 km/h (0 Bft)
14.02.2016 09:00 0,7 C 1,6 C 76 % 991,9 hPa 0,0 mm 0,0 km/h (0 Bft) N 0,00 h -3,2 C 0,0 km/h (0 Bft)
14.02.2016 10:00 4,6 C 9,1 C 67 % 991,8 hPa 0,0 mm 2,3 km/h (1 Bft) O-NO 0,83 h -1,0 C 4,2 km/h (1 Bft)
14.02.2016 11:00 7,2 C 9,5 C 53 % 992,2 hPa 0,0 mm 9,9 km/h (2 Bft) O-NO 0,40 h -1,7 C 11,8 km/h (2 Bft)
14.02.2016 12:00 7,1 C 8,1 C 55 % 991,9 hPa 0,0 mm 8,2 km/h (2 Bft) O-NO 0,00 h -1,4 C 10,7 km/h (2 Bft)
14.02.2016 13:00 7,7 C 9,0 C 55 % 990,1 hPa 0,0 mm 9,0 km/h (2 Bft) NO 0,00 h -0,9 C 11,7 km/h (2 Bft)
14.02.2016 14:00 8,4 C 9,5 C 51 % 987,5 hPa 0,0 mm 9,5 km/h (2 Bft) O-NO 0,00 h -1,2 C 11,6 km/h (2 Bft)
14.02.2016 15:00 8,5 C 9,0 C 54 % 988,6 hPa 0,0 mm 11,8 km/h (2 Bft) NW 0,00 h -0,4 C 14,4 km/h (3 Bft)
14.02.2016 16:00 6,2 C 6,1 C 61 % 989,9 hPa 0,0 mm 8,0 km/h (2 Bft) NW 0,00 h -0,7 C 11,4 km/h (2 Bft)
14.02.2016 17:00 2,4 C 1,7 C 79 % 991,4 hPa 1,4 mm 10,3 km/h (2 Bft) W 0,00 h -0,9 C 16,2 km/h (3 Bft)
14.02.2016 18:00 0,7 C 0,0 C 87 % 993,1 hPa 0,7 mm 7,4 km/h (2 Bft) W-SW 0,00 h -1,2 C 8,9 km/h (2 Bft)
14.02.2016 19:00 0,9 C 0,2 C 89 % 993,8 hPa 0,7 mm 8,3 km/h (2 Bft) W-SW 0,00 h -0,8 C 10,4 km/h (2 Bft)
14.02.2016 20:00 0,9 C 0,3 C 89 % 994,5 hPa 0,7 mm 8,1 km/h (2 Bft) W-SW 0,00 h -0,7 C 9,8 km/h (2 Bft)
14.02.2016 21:00 1,0 C 0,5 C 89 % 995,5 hPa 0,7 mm 6,6 km/h (2 Bft) SW 0,00 h -0,6 C 8,5 km/h (2 Bft)
14.02.2016 22:00 1,0 C 0,7 C 89 % 996,1 hPa 0,0 mm 3,4 km/h (1 Bft) S 0,00 h -0,6 C 3,6 km/h (1 Bft)
14.02.2016 23:00 0,8 C 0,5 C 91 % 996,6 hPa 0,0 mm 0,2 km/h (0 Bft) N 0,00 h -0,6 C 0,3 km/h (0 Bft)
Min-Datum _ 12.02.16 12.02.16 09.02.16 14.02.16 - 14.02.16 - - 11.02.16 14.02.16
_ Min-Zeit 02:53 02:53 18:15 14:00 - 23:17 - - 19:49 23:00
Minimum _ -5,3 C -5,8 C 36 % 987,2 hPa - 0,0 km/h (0 Bft) - - -9,9 C 0,0 km/h (0 Bft)
Max-Datum _ 08.02.16 08.02.16 14.02.16 08.02.16 09.02.16 10.02.16 - 13.02.16 09.02.16 10.02.16
_ Max-Zeit 14:05 14:05 23:21 00:00 21:25 02:05 - 12:04 13:35 00:55
Maximum _ 13,0 C 16,4 C 91 % 1016,5 hPa 2,1 mm 31,9 km/h
W-SW (5 Bft)
- 0,08 h 3,5 C 76,1 km/h
W (9 Bft)
Durchschnitt _ 2,5 C 2,7 C 68 % 1001,2 hPa #13,1 mm 6,7 km/h (2 Bft) W-SW #13:38 h -3,0 C 8,7 km/h (2 Bft)